Stoney Creek, North Carolina
Current Conditions -  °F | °C
As of 5:54 AM on Friday 19 Dec 2014 (Local Time) from KBUY Reporting Station
Overcast Overcast  
Wind Chill: 39°   Ceiling: 6500
Heat Index: 42°   Visibility: 10mi
Dew Point: 22°   Wind: 5mph
Humidity: 45%   Direction: 310°NW
Pressure: 30.12"   Gusts: NA
Location:  36.036°N, 79.6016°W
Report Text: KBUY 191054Z AUTO 31004KT 10SM OVC065 06/M06 A3012 RMK AO2 SLP200 T00561056
Loading
Personal Weather Stations






























Interactive Weather Map New forecast layout! Learn more

10-Day Weather Forecast

Advertisements
Track Severe Weather on mobile